Time;durP1;ratioP1;P1;durP2;ratioP2;P2;SDS_P1;SDS_P2;PMS_P1;PMS_P2;Temp;Humidity;BMP_temperature;BMP_pressure;BME280_temperature;BME280_humidity;BME280_pressure;Samples;Min_cycle;Max_cycle;Signal;HPM_P1;HPM_P2
2023/08/14 00:00:47;;;;;;;2.70;2.60;;;20.20;99.90;;;20.52;83.65;101452.47;5063357;28;20078;-67
2023/08/14 00:03:16;;;;;;;2.60;2.50;;;20.20;99.90;;;20.53;83.65;101449.75;5062654;28;20041;-67
2023/08/14 00:05:44;;;;;;;2.50;2.40;;;20.10;99.90;;;20.54;83.63;101442.56;5061836;28;20115;-67
2023/08/14 00:08:13;;;;;;;2.40;2.30;;;20.20;99.90;;;20.51;83.63;101451.63;5063285;28;20862;-67
2023/08/14 00:10:42;;;;;;;2.60;2.50;;;20.20;99.90;;;20.51;83.60;101456.13;5068165;28;20470;-67
2023/08/14 00:13:11;;;;;;;3.33;3.23;;;20.20;99.90;;;20.41;83.55;101455.56;5059290;28;20425;-67
2023/08/14 00:15:40;;;;;;;2.92;2.83;;;20.10;99.90;;;20.39;83.81;101449.38;5052633;28;20736;-67
2023/08/14 00:18:08;;;;;;;2.90;2.80;;;20.10;99.90;;;20.42;83.83;101446.56;5052292;28;20491;-67
2023/08/14 00:20:37;;;;;;;2.45;2.35;;;20.10;99.90;;;20.41;83.34;101452.88;5052368;28;20482;-67
2023/08/14 00:23:05;;;;;;;2.50;2.40;;;20.10;99.90;;;20.36;83.58;101440.53;5052266;28;20099;-67
2023/08/14 00:25:33;;;;;;;2.65;2.55;;;20.10;99.90;;;20.29;83.65;101450.63;5061929;28;20045;-67
2023/08/14 00:28:04;;;;;;;2.85;2.75;;;20.00;99.90;;;20.31;83.69;101443.38;5062114;28;20033;-67
2023/08/14 00:30:32;;;;;;;2.63;2.53;;;20.00;99.90;;;20.25;83.73;101415.84;5066917;28;20470;-66
2023/08/14 00:33:00;;;;;;;2.90;2.80;;;20.00;99.90;;;20.35;83.82;101439.66;5072139;28;20136;-67
2023/08/14 00:35:29;;;;;;;3.72;3.53;;;20.00;99.90;;;19.75;83.78;101324.47;5062955;28;20106;-67
2023/08/14 00:37:58;;;;;;;2.50;2.40;;;20.00;99.90;;;20.43;83.61;101432.19;5056372;28;20457;-67
2023/08/14 00:40:26;;;;;;;2.50;2.40;;;20.10;99.90;;;20.41;83.59;101434.06;5063160;28;20037;-67
2023/08/14 00:42:55;;;;;;;2.83;2.72;;;20.10;99.90;;;20.41;83.47;101415.25;5060271;28;20123;-67
2023/08/14 00:45:25;;;;;;;2.67;2.58;;;20.10;99.90;;;20.44;83.20;101422.34;5060683;28;20175;-67
2023/08/14 00:48:11;;;;;;;3.40;3.30;;;20.10;99.90;;;20.40;82.95;101426.06;5079878;28;20068;-67
2023/08/14 00:50:40;;;;;;;2.90;2.80;;;20.10;99.90;;;20.42;82.83;101425.06;5083089;28;20094;-66
2023/08/14 00:53:09;;;;;;;2.75;2.65;;;20.10;99.90;;;20.43;82.76;101424.13;5060424;28;20047;-67
2023/08/14 00:55:38;;;;;;;7.55;7.00;;;20.10;99.90;;;20.43;82.46;101417.88;5081008;28;20049;-67
2023/08/14 00:58:06;;;;;;;3.17;3.08;;;20.10;99.90;;;20.36;82.03;101417.22;5066026;28;20106;-67
2023/08/14 01:00:36;;;;;;;2.75;2.65;;;20.00;99.90;;;20.36;81.92;101416.34;5061617;28;20080;-67
2023/08/14 01:03:05;;;;;;;2.50;2.40;;;20.00;99.90;;;20.35;81.32;101417.28;5082345;28;20097;-66
2023/08/14 01:05:34;;;;;;;2.40;2.30;;;20.00;99.90;;;20.33;80.56;101419.13;5064286;28;20111;-66
2023/08/14 01:08:02;;;;;;;2.63;2.53;;;20.00;99.90;;;20.34;80.29;101415.53;5062542;28;20055;-67
2023/08/14 01:10:46;;;;;;;2.75;2.65;;;20.00;99.90;;;20.37;79.59;101418.97;5063818;28;20470;-66
2023/08/14 01:13:37;;;;;;;2.80;2.70;;;20.00;99.90;;;20.30;79.49;101401.34;5055902;28;20056;-67
2023/08/14 01:16:11;;;;;;;2.60;2.50;;;20.00;99.90;;;20.32;79.43;101415.59;5062500;28;20051;-67
2023/08/14 01:18:42;;;;;;;2.85;2.75;;;20.00;99.90;;;20.24;79.65;101414.97;5066901;28;20040;-67
2023/08/14 01:21:36;;;;;;;2.90;2.80;;;19.90;99.90;;;20.25;79.35;101405.09;5063809;28;20041;-67
2023/08/14 01:24:22;;;;;;;2.70;2.60;;;19.90;99.90;;;20.24;79.28;101403.34;5067151;28;20055;-67
2023/08/14 01:26:53;;;;;;;2.72;2.63;;;19.90;99.90;;;20.21;79.32;101393.56;5055476;28;20548;-67
2023/08/14 01:29:22;;;;;;;2.97;2.88;;;19.90;99.90;;;20.24;79.13;101395.28;5055328;28;20402;-67
2023/08/14 01:31:50;;;;;;;2.63;2.53;;;19.90;99.90;;;20.24;79.17;101388.13;5055394;28;20041;-67
2023/08/14 01:34:19;;;;;;;3.08;2.97;;;19.90;99.90;;;20.26;78.86;101390.75;5063511;28;20041;-67
2023/08/14 01:37:00;;;;;;;2.95;2.85;;;19.90;99.90;;;20.27;78.78;101396.06;5066879;28;20043;-67
2023/08/14 01:39:39;;;;;;;2.78;2.67;;;19.90;99.90;;;20.28;78.59;101387.06;5064642;28;20056;-67
2023/08/14 01:42:16;;;;;;;2.80;2.70;;;19.90;99.90;;;20.27;78.56;101387.09;5062943;28;20033;-67
2023/08/14 01:44:49;;;;;;;2.70;2.60;;;19.90;99.90;;;20.24;78.95;101379.16;5071895;28;20059;-67
2023/08/14 01:47:19;;;;;;;2.72;2.63;;;19.80;99.90;;;20.28;79.11;101372.75;5065484;28;20051;-67
2023/08/14 01:49:49;;;;;;;2.50;2.40;;;19.90;99.90;;;20.24;79.18;101372.00;5062920;28;20041;-67
2023/08/14 01:52:17;;;;;;;2.90;2.80;;;19.90;99.90;;;20.25;79.28;101370.16;5053049;28;20106;-67
2023/08/14 01:54:48;;;;;;;2.72;2.63;;;19.90;99.90;;;20.21;79.14;101366.72;5064165;28;20041;-67
2023/08/14 01:57:18;;;;;;;2.50;2.40;;;19.80;99.90;;;20.12;79.32;101374.19;5054323;28;20127;-67
2023/08/14 01:59:48;;;;;;;2.67;2.57;;;19.80;99.90;;;20.05;79.54;101365.50;5059203;28;20057;-67
2023/08/14 02:02:16;;;;;;;2.90;2.80;;;19.70;99.90;;;20.06;79.54;101359.16;5060696;28;20105;-67
2023/08/14 02:04:45;;;;;;;2.60;2.50;;;19.70;99.90;;;19.93;79.87;101354.28;5069925;28;20310;-67
2023/08/14 02:07:13;;;;;;;2.50;2.40;;;19.60;99.90;;;19.86;79.95;101352.75;5065194;28;20037;-67
2023/08/14 02:09:42;;;;;;;2.67;2.58;;;19.50;99.90;;;19.78;79.88;101361.09;5062502;28;20453;-67
2023/08/14 02:12:10;;;;;;;2.67;2.58;;;19.40;99.90;;;19.74;80.01;101352.22;5065809;28;20064;-67
2023/08/14 02:14:41;;;;;;;2.60;2.50;;;19.30;99.90;;;19.75;80.30;101345.94;5077755;28;20049;-67
2023/08/14 02:17:09;;;;;;;2.90;2.80;;;19.40;99.90;;;19.78;80.38;101350.34;5065002;28;20689;-67
2023/08/14 02:19:38;;;;;;;2.90;2.80;;;19.40;99.90;;;19.72;80.58;101350.56;5058740;28;20064;-67
2023/08/14 02:22:06;;;;;;;2.92;2.83;;;19.30;99.90;;;19.68;80.84;101356.94;5063538;28;20053;-67
2023/08/14 02:24:35;;;;;;;2.72;2.63;;;19.30;99.90;;;19.64;80.89;101342.75;5063412;28;20040;-67
2023/08/14 02:27:04;;;;;;;2.63;2.53;;;19.20;99.90;;;19.55;82.16;101339.50;5064279;28;20071;-68
2023/08/14 02:29:34;;;;;;;2.60;2.50;;;19.10;99.90;;;19.46;82.42;101345.16;5062226;28;20037;-67
2023/08/14 02:32:04;;;;;;;3.17;3.08;;;19.00;99.90;;;19.41;82.64;101339.97;5065131;28;20098;-67
2023/08/14 02:34:35;;;;;;;2.80;2.70;;;19.00;99.90;;;19.40;82.92;101338.19;5065174;28;20438;-67
2023/08/14 02:37:04;;;;;;;2.83;2.72;;;19.00;99.90;;;19.43;83.52;101339.91;5062050;28;20072;-67
2023/08/14 02:39:32;;;;;;;2.72;2.63;;;19.00;99.90;;;19.33;82.80;101314.31;5070832;28;20045;-67
2023/08/14 02:42:01;;;;;;;2.60;2.50;;;19.00;99.90;;;19.43;83.04;101340.81;5062828;28;20049;-67
2023/08/14 02:44:29;;;;;;;2.30;2.20;;;19.00;99.90;;;19.40;82.23;101340.00;5063276;28;20047;-67
2023/08/14 02:46:58;;;;;;;2.60;2.50;;;19.00;99.90;;;19.44;82.42;101342.53;5063378;28;20429;-67
2023/08/14 02:49:29;;;;;;;2.95;2.85;;;19.00;99.90;;;19.48;82.09;101341.50;5061979;28;20547;-67
2023/08/14 02:51:58;;;;;;;2.85;2.75;;;19.00;99.90;;;19.46;82.10;101340.69;5064586;28;20036;-67
2023/08/14 02:54:26;;;;;;;2.90;2.80;;;19.00;99.90;;;19.46;82.22;101342.47;5064871;28;20044;-67
2023/08/14 02:56:55;;;;;;;2.60;2.50;;;19.10;99.90;;;19.05;82.16;101276.75;5056851;28;20049;-67
2023/08/14 02:59:23;;;;;;;2.55;2.45;;;19.10;99.90;;;19.01;82.06;101260.81;5066157;28;20057;-67
2023/08/14 03:01:52;;;;;;;2.70;2.60;;;19.10;99.90;;;19.52;82.02;101350.34;5063918;28;20413;-67
2023/08/14 03:04:21;;;;;;;2.53;2.42;;;19.10;99.90;;;19.51;82.34;101351.28;5062865;28;20049;-67
2023/08/14 03:06:50;;;;;;;2.63;2.53;;;19.10;99.90;;;19.50;82.52;101345.03;5069691;28;20049;-67
2023/08/14 03:09:19;;;;;;;2.58;2.47;;;19.10;99.90;;;19.47;82.55;101347.78;5063683;28;20075;-67
2023/08/14 03:11:47;;;;;;;2.53;2.42;;;19.10;99.90;;;19.40;82.88;101342.69;5062170;28;20076;-67
2023/08/14 03:14:15;;;;;;;3.00;2.90;;;19.00;99.90;;;19.43;83.15;101345.28;5064058;28;20048;-67
2023/08/14 03:16:44;;;;;;;2.88;2.78;;;19.00;99.90;;;19.39;83.59;101343.63;5068297;28;20044;-67
2023/08/14 03:19:12;;;;;;;2.72;2.63;;;19.00;99.90;;;19.40;83.47;101340.00;5053348;28;20374;-67
2023/08/14 03:21:42;;;;;;;2.72;2.63;;;19.00;99.90;;;19.39;83.95;101344.50;5053314;28;20477;-67
2023/08/14 03:24:11;;;;;;;2.80;2.70;;;19.00;99.90;;;19.32;84.13;101336.66;5052847;28;20483;-67
2023/08/14 03:26:40;;;;;;;3.13;3.03;;;18.90;99.90;;;19.32;85.06;101342.00;5057527;28;20076;-67
2023/08/14 03:29:08;;;;;;;2.67;2.58;;;18.90;99.90;;;19.08;85.87;101345.50;5061212;28;20056;-67
2023/08/14 03:31:37;;;;;;;2.60;2.50;;;18.70;99.90;;;19.10;86.07;101343.66;5068706;28;20048;-67
2023/08/14 03:34:05;;;;;;;2.92;2.83;;;18.60;99.90;;;19.04;86.22;101328.63;5058583;28;20053;-67
2023/08/14 03:36:34;;;;;;;2.97;2.88;;;18.60;99.90;;;19.07;86.79;101335.69;5063336;28;20570;-67
2023/08/14 03:39:02;;;;;;;2.78;2.67;;;18.60;99.90;;;19.10;86.94;101339.16;5060882;28;20483;-67
2023/08/14 03:41:32;;;;;;;2.60;2.50;;;18.70;99.90;;;19.08;87.06;101334.78;5075915;28;20049;-67
2023/08/14 03:44:02;;;;;;;2.72;2.63;;;18.60;99.90;;;19.04;87.24;101333.13;5067773;28;20049;-67
2023/08/14 03:46:31;;;;;;;2.63;2.53;;;18.60;99.90;;;19.10;87.05;101335.59;5059045;28;20486;-67
2023/08/14 03:48:59;;;;;;;2.42;2.33;;;18.70;99.90;;;18.96;87.48;101345.88;5052026;28;20437;-67
2023/08/14 03:51:27;;;;;;;3.30;3.20;;;18.60;99.90;;;18.89;87.97;101339.84;5054031;28;20401;-67
2023/08/14 03:53:56;;;;;;;2.63;2.53;;;18.50;99.90;;;18.90;88.47;101342.47;5068868;28;20555;-67
2023/08/14 03:56:24;;;;;;;2.72;2.63;;;18.50;99.90;;;18.76;88.69;101343.81;5058012;28;20064;-67
2023/08/14 03:58:54;;;;;;;2.60;2.50;;;18.40;99.90;;;18.64;88.73;101320.09;5061166;28;20052;-67
2023/08/14 04:01:22;;;;;;;2.50;2.40;;;18.40;99.90;;;18.82;89.11;101335.59;5060862;28;20072;-67
2023/08/14 04:03:51;;;;;;;2.92;2.83;;;18.40;99.90;;;18.74;89.29;101325.09;5058370;28;20095;-67
2023/08/14 04:06:20;;;;;;;3.65;3.38;;;18.30;99.90;;;18.49;88.71;101283.00;5060213;28;20041;-67
2023/08/14 04:08:48;;;;;;;3.08;2.97;;;18.30;99.90;;;18.76;88.49;101338.44;5062012;28;20070;-67
2023/08/14 04:11:17;;;;;;;3.25;2.95;;;18.30;99.90;;;18.80;88.07;101332.97;5056099;28;20472;-67
2023/08/14 04:13:45;;;;;;;2.80;2.70;;;18.40;99.90;;;18.70;88.29;101326.13;5076886;28;20048;-67
2023/08/14 04:16:15;;;;;;;3.20;3.10;;;18.30;99.90;;;18.63;88.74;101340.63;5068958;28;20052;-67
2023/08/14 04:18:43;;;;;;;2.50;2.40;;;18.30;99.90;;;18.44;89.45;101336.75;5057575;28;20073;-67
2023/08/14 04:21:11;;;;;;;3.05;2.95;;;18.10;99.90;;;18.36;90.05;101328.00;5062585;28;20127;-67
2023/08/14 04:23:40;;;;;;;2.95;2.85;;;18.00;99.90;;;18.25;90.82;101326.56;5060990;28;20053;-67
2023/08/14 04:26:08;;;;;;;2.80;2.70;;;17.90;99.90;;;18.21;91.20;101327.56;5063289;28;20501;-67
2023/08/14 04:28:37;;;;;;;2.95;2.85;;;17.80;99.90;;;18.21;91.50;101332.94;5060065;28;20077;-67
2023/08/14 04:31:05;;;;;;;3.13;3.03;;;17.80;99.90;;;18.15;92.18;101322.38;5050386;28;20443;-67
2023/08/14 04:33:35;;;;;;;3.10;3.00;;;17.80;99.90;;;18.19;92.57;101324.06;5051834;28;20044;-67
2023/08/14 04:36:03;;;;;;;3.35;3.25;;;17.80;99.90;;;18.15;92.76;101317.91;5051743;28;20087;-67
2023/08/14 04:38:32;;;;;;;3.05;2.95;;;17.80;99.90;;;18.20;93.43;101320.44;5060923;28;20084;-67
2023/08/14 04:41:02;;;;;;;3.00;2.90;;;17.80;99.90;;;18.18;93.52;101316.94;5075192;28;20072;-67
2023/08/14 04:43:31;;;;;;;3.70;3.58;;;17.80;99.90;;;18.13;93.64;101311.72;5057493;28;20473;-67
2023/08/14 04:46:10;;;;;;;3.10;3.00;;;17.80;99.90;;;17.23;93.94;101175.09;5077964;28;20045;-67
2023/08/14 04:48:40;;;;;;;3.10;3.00;;;17.60;99.90;;;18.00;94.57;101300.47;5058903;28;20475;-67
2023/08/14 04:51:08;;;;;;;3.45;3.35;;;17.60;99.90;;;17.90;94.94;101298.97;5069098;28;20139;-67
2023/08/14 04:53:36;;;;;;;3.78;3.58;;;17.50;99.90;;;17.90;95.00;101301.63;5056651;28;20124;-67
2023/08/14 04:56:06;;;;;;;3.58;3.45;;;17.50;99.90;;;17.94;95.25;101302.47;5076991;28;20055;-67
2023/08/14 04:58:34;;;;;;;3.00;2.90;;;17.50;99.90;;;18.04;94.79;101294.09;5067757;28;20049;-67
2023/08/14 05:01:03;;;;;;;3.13;3.03;;;17.60;99.90;;;18.04;94.56;101301.25;5074877;28;20057;-67
2023/08/14 05:03:32;;;;;;;2.90;2.80;;;17.70;99.90;;;18.06;94.10;101302.09;5061584;28;20064;-67
2023/08/14 05:06:01;;;;;;;2.80;2.70;;;17.70;99.90;;;18.18;93.37;101303.53;5066836;28;20505;-67
2023/08/14 05:08:30;;;;;;;3.37;3.27;;;17.80;99.90;;;18.26;93.16;101299.72;5051367;28;20098;-67
2023/08/14 05:10:59;;;;;;;3.17;3.08;;;17.90;99.90;;;18.37;92.36;101307.47;5058168;28;20296;-68
2023/08/14 05:13:28;;;;;;;3.00;2.90;;;18.00;99.90;;;18.44;92.03;101309.94;5060161;28;20071;-67
2023/08/14 05:15:57;;;;;;;3.28;3.17;;;18.10;99.90;;;18.52;91.73;101309.72;5057941;28;20075;-67
2023/08/14 05:18:37;;;;;;;3.00;2.90;;;18.20;99.90;;;18.60;90.40;101311.22;5070152;28;20087;-67
2023/08/14 05:21:07;;;;;;;3.13;3.03;;;18.30;99.90;;;18.55;90.57;101317.66;5063037;28;20107;-68
2023/08/14 05:23:35;;;;;;;2.85;2.75;;;18.20;99.90;;;18.69;90.42;101313.66;5063305;28;20063;-67
2023/08/14 05:26:04;;;;;;;2.70;2.60;;;18.30;99.90;;;18.69;89.74;101319.00;5065635;28;20063;-67
2023/08/14 05:28:33;;;;;;;3.10;3.00;;;18.30;99.90;;;18.55;90.05;101318.53;5059351;28;20098;-67
2023/08/14 05:31:01;;;;;;;2.70;2.60;;;18.20;99.90;;;18.44;90.28;101319.78;5064253;28;20091;-67
2023/08/14 05:33:29;;;;;;;3.30;3.15;;;18.10;99.90;;;18.27;90.67;101301.50;5071365;28;20048;-67
2023/08/14 05:35:58;;;;;;;3.20;3.10;;;18.00;99.90;;;18.49;90.60;101309.78;5065265;28;20115;-67
2023/08/14 05:38:28;;;;;;;3.20;3.10;;;18.10;99.90;;;18.53;90.98;101315.03;5064066;28;20076;-67
2023/08/14 05:40:56;;;;;;;2.70;2.60;;;18.10;99.90;;;18.58;90.59;101315.75;5065863;28;20041;-67
2023/08/14 05:43:24;;;;;;;2.90;2.80;;;18.20;99.90;;;18.75;90.51;101316.16;5062799;28;20748;-67
2023/08/14 05:45:53;;;;;;;3.20;3.10;;;18.30;99.90;;;18.75;89.84;101317.94;5062485;28;20512;-67
2023/08/14 05:48:22;;;;;;;2.90;2.80;;;18.30;99.90;;;18.75;90.37;101310.78;5065678;28;20374;-67
2023/08/14 05:50:52;;;;;;;3.47;3.38;;;18.40;99.90;;;18.80;90.25;101302.59;5063352;28;20446;-67
2023/08/14 05:53:21;;;;;;;2.88;2.78;;;18.40;99.90;;;18.96;88.80;101319.06;5064918;28;20055;-67
2023/08/14 05:55:50;;;;;;;3.10;3.00;;;18.50;99.90;;;18.98;88.47;101312.75;5064620;28;20075;-67
2023/08/14 05:58:19;;;;;;;3.87;3.67;;;18.50;99.90;;;19.10;87.92;101311.47;5070907;28;20504;-67
2023/08/14 06:00:49;;;;;;;3.13;3.03;;;18.70;99.90;;;19.07;88.58;101309.75;5065412;28;20079;-67
2023/08/14 06:03:17;;;;;;;3.13;3.03;;;18.70;99.90;;;19.13;88.35;101314.03;5062681;28;20536;-67
2023/08/14 06:06:05;;;;;;;2.70;2.60;;;18.70;99.90;;;19.11;88.41;101313.22;5054112;28;20060;-67
2023/08/14 06:08:34;;;;;;;2.83;2.72;;;18.70;99.90;;;19.17;88.73;101310.34;5053851;28;20051;-67
2023/08/14 06:11:04;;;;;;;2.60;2.50;;;18.70;99.90;;;19.34;88.10;101316.06;5053852;28;20060;-67
2023/08/14 06:13:33;;;;;;;3.30;3.20;;;18.90;99.90;;;19.36;87.16;101319.56;5053736;28;20044;-67
2023/08/14 06:16:02;;;;;;;2.70;2.60;;;18.90;99.90;;;19.28;87.34;101305.50;5061973;28;20044;-66
2023/08/14 06:18:30;;;;;;;9.27;4.15;;;19.10;99.90;;;19.23;88.57;101318.19;5061779;28;20135;-66
2023/08/14 06:20:59;;;;;;;2.90;2.80;;;18.90;99.90;;;19.19;89.91;101312.03;5062963;28;20047;-67
2023/08/14 06:23:27;;;;;;;2.63;2.53;;;18.80;99.90;;;19.12;89.59;101310.50;5063995;28;20049;-67
2023/08/14 06:25:55;;;;;;;2.60;2.50;;;18.70;99.90;;;19.05;90.08;101313.44;5063573;28;20485;-67
2023/08/14 06:28:25;;;;;;;3.17;3.03;;;18.70;99.90;;;19.11;90.65;101323.94;5069742;28;20553;-71
2023/08/14 06:30:54;;;;;;;3.50;3.30;;;18.70;99.90;;;19.14;89.97;101323.84;5064838;28;20044;-67
2023/08/14 06:33:22;;;;;;;3.30;3.20;;;18.70;99.90;;;19.21;90.03;101330.75;5062376;28;20049;-67
2023/08/14 06:35:50;;;;;;;3.28;3.08;;;18.80;99.90;;;19.34;89.11;101332.16;5065086;28;20049;-71
2023/08/14 06:38:19;;;;;;;4.32;4.10;;;18.90;99.90;;;19.41;88.88;101328.34;5053263;28;20463;-63
2023/08/14 06:40:47;;;;;;;3.17;3.08;;;19.00;99.90;;;19.40;88.42;101338.19;5053791;28;20045;-64
2023/08/14 06:43:15;;;;;;;3.13;2.92;;;19.10;99.90;;;19.47;88.33;101336.19;5053525;28;20045;-62
2023/08/14 06:45:47;;;;;;;3.03;2.92;;;19.10;99.90;;;19.62;88.56;101344.63;5054605;28;20060;-62
2023/08/14 06:48:15;;;;;;;3.67;3.47;;;19.30;99.90;;;19.70;89.76;101342.53;5063191;28;20098;-61
2023/08/14 06:50:44;;;;;;;3.13;3.03;;;19.40;99.90;;;19.68;89.25;101341.72;5063315;28;20037;-63
2023/08/14 06:53:12;;;;;;;3.65;3.38;;;19.40;99.90;;;19.84;88.86;101339.34;5062189;28;20055;-62
2023/08/14 06:55:46;;;;;;;3.25;3.05;;;19.50;99.90;;;20.05;88.85;101338.63;5064476;28;20040;-61
2023/08/14 06:58:15;;;;;;;2.80;2.70;;;19.70;99.90;;;20.34;86.52;101334.91;5053064;28;20383;-65
2023/08/14 07:00:47;;;;;;;2.70;2.60;;;20.00;99.90;;;20.61;85.17;101333.88;5052895;28;20449;-65
2023/08/14 07:03:16;;;;;;;2.40;2.30;;;20.30;99.90;;;20.10;83.42;101229.19;5053215;28;20037;-65
2023/08/14 07:05:44;;;;;;;2.90;2.80;;;20.50;99.90;;;20.81;80.27;101343.88;5054808;28;20094;-63
2023/08/14 07:08:13;;;;;;;3.00;2.90;;;20.60;99.90;;;20.93;80.09;101351.44;5069398;28;20117;-65
2023/08/14 07:10:41;;;;;;;3.03;2.92;;;20.70;99.90;;;20.93;77.67;101356.81;5058935;28;20402;-65
2023/08/14 07:13:11;;;;;;;2.50;2.40;;;20.80;99.90;;;21.05;77.51;101359.94;5063758;28;20082;-65
2023/08/14 07:15:40;;;;;;;2.35;2.25;;;20.90;99.90;;;21.23;77.30;101353.84;5061494;28;20044;-65
2023/08/14 07:18:10;;;;;;;2.70;2.60;;;21.00;99.90;;;21.26;76.77;101360.88;5052900;28;20080;-65
2023/08/14 07:20:38;;;;;;;2.67;2.58;;;21.00;99.90;;;21.23;75.71;101369.09;5052905;28;20037;-65
2023/08/14 07:23:07;;;;;;;2.63;2.53;;;21.10;99.90;;;21.35;75.93;101363.22;5052789;28;20041;-63
2023/08/14 07:25:35;;;;;;;2.78;2.67;;;21.10;99.90;;;21.39;76.06;101362.13;5054422;28;20497;-63
2023/08/14 07:28:04;;;;;;;2.33;2.22;;;21.20;99.90;;;21.58;76.45;101353.25;5062645;28;20049;-63
2023/08/14 07:30:33;;;;;;;2.60;2.50;;;21.40;99.90;;;21.66;76.61;101344.84;5062505;28;20045;-64
2023/08/14 07:33:01;;;;;;;4.60;3.22;;;21.50;99.90;;;21.74;76.47;101334.63;5068346;28;20437;-63
2023/08/14 07:35:32;;;;;;;2.65;2.55;;;21.60;99.90;;;21.54;75.78;101296.91;5063350;28;20084;-63
2023/08/14 07:38:00;;;;;;;3.22;3.10;;;21.50;99.90;;;21.68;74.51;101321.41;5060770;28;20081;-63
2023/08/14 07:40:28;;;;;;;2.45;2.35;;;21.40;99.90;;;21.67;73.98;101324.16;5051980;28;20051;-63
2023/08/14 07:42:57;;;;;;;2.90;2.80;;;21.40;99.90;;;21.67;75.05;101338.53;5052038;28;20100;-63
2023/08/14 07:45:26;;;;;;;3.08;2.97;;;21.40;99.90;;;21.67;72.65;101329.56;5052343;28;20041;-63
2023/08/14 07:47:55;;;;;;;2.83;2.72;;;21.40;99.90;;;21.82;74.80;101315.47;5053590;28;20049;-61
2023/08/14 07:50:24;;;;;;;2.70;2.60;;;21.50;99.90;;;21.83;73.24;101319.91;5062121;28;20040;-61
2023/08/14 07:52:54;;;;;;;3.08;2.88;;;21.60;99.90;;;22.00;73.58;101318.25;5061992;28;20098;-63
2023/08/14 07:55:22;;;;;;;2.97;2.88;;;21.70;99.90;;;22.10;72.92;101319.59;5061159;28;20045;-61
2023/08/14 07:57:51;;;;;;;2.63;2.53;;;21.80;99.90;;;22.28;71.68;101324.13;5063112;28;20052;-62
2023/08/14 08:00:20;;;;;;;3.63;2.83;;;22.00;99.90;;;22.28;72.46;101334.91;5060201;28;20045;-61
2023/08/14 08:02:49;;;;;;;2.45;2.35;;;22.00;99.90;;;22.26;68.65;101334.09;5059838;28;20083;-62
2023/08/14 08:05:17;;;;;;;2.30;2.20;;;22.10;99.90;;;22.26;67.12;101317.94;5060293;28;20056;-63
2023/08/14 08:07:48;;;;;;;3.60;2.67;;;22.00;99.90;;;22.26;67.55;101317.94;5063061;28;20048;-61
2023/08/14 08:10:18;;;;;;;2.30;2.20;;;22.00;99.90;;;22.37;67.72;101330.94;5061114;28;20037;-62
2023/08/14 08:12:46;;;;;;;2.67;2.58;;;22.10;99.90;;;22.45;68.35;101328.78;5068496;28;20044;-68
2023/08/14 08:15:14;;;;;;;8.68;3.00;;;22.20;99.90;;;22.46;67.59;101327.81;5062185;28;20045;-64
2023/08/14 08:17:44;;;;;;;5.95;3.00;;;22.20;99.90;;;22.52;67.44;101318.56;5060832;28;20047;-65
2023/08/14 08:20:13;;;;;;;2.45;2.35;;;22.30;99.90;;;22.53;66.70;101333.81;5063413;28;20048;-64
2023/08/14 08:22:41;;;;;;;2.92;2.83;;;22.20;99.90;;;22.61;66.51;101324.44;5067329;28;20045;-65
2023/08/14 08:25:10;;;;;;;12.55;2.75;;;22.30;99.90;;;22.63;67.17;101325.25;5059950;28;20041;-64
2023/08/14 08:27:40;;;;;;;2.47;2.38;;;22.40;99.90;;;22.73;67.47;101341.88;5063075;28;20082;-65
2023/08/14 08:30:10;;;;;;;2.65;2.55;;;22.40;99.90;;;22.75;66.13;101331.88;5061069;28;20049;-64
2023/08/14 08:32:39;;;;;;;4.88;3.10;;;22.50;99.90;;;22.87;66.98;101337.59;5061848;28;20051;-63
2023/08/14 08:35:09;;;;;;;3.00;2.90;;;22.60;99.90;;;23.00;68.44;101340.56;5057244;28;20053;-68
2023/08/14 08:37:37;;;;;;;2.78;2.58;;;22.80;99.90;;;23.13;68.12;101336.34;5062456;28;20037;-69
2023/08/14 08:40:08;;;;;;;3.15;2.97;;;22.90;99.90;;;23.19;66.74;101338.72;5060318;28;20498;-65
2023/08/14 08:42:37;;;;;;;2.85;2.75;;;23.00;99.90;;;23.37;68.78;101340.53;5063286;28;20499;-66
2023/08/14 08:45:10;;;;;;;2.35;2.25;;;23.10;99.90;;;23.32;66.71;101341.72;5059745;28;20049;-66
2023/08/14 08:47:41;;;;;;;2.28;2.17;;;23.20;99.90;;;23.31;66.78;101346.25;5063236;28;20041;-66
2023/08/14 08:50:11;;;;;;;2.70;2.60;;;23.10;99.90;;;23.36;66.27;101337.94;5061618;28;20048;-67
2023/08/14 08:52:40;;;;;;;2.75;2.65;;;23.20;99.90;;;23.47;65.97;101335.56;5066267;28;20040;-67
2023/08/14 08:55:09;;;;;;;2.38;2.28;;;23.30;99.90;;;23.60;68.60;101347.50;5064521;28;20110;-65
2023/08/14 08:57:39;;;;;;;2.47;2.38;;;23.40;99.90;;;23.48;65.40;101342.72;5066894;28;20056;-64
2023/08/14 09:00:11;;;;;;;2.25;2.15;;;23.30;99.90;;;23.56;66.88;101333.28;5074004;28;20049;-64
2023/08/14 09:02:39;;;;;;;2.47;2.38;;;23.30;99.90;;;23.67;66.92;101338.16;5064383;28;20050;-64
2023/08/14 09:05:08;;;;;;;2.30;2.20;;;23.40;99.90;;;23.64;67.86;101336.47;5065736;28;20454;-65
2023/08/14 09:07:37;;;;;;;2.45;2.35;;;23.40;99.90;;;23.72;66.31;101333.38;5060519;28;20099;-63
2023/08/14 09:10:06;;;;;;;2.42;2.33;;;23.50;99.90;;;23.73;67.16;101330.56;5065783;28;20041;-62
2023/08/14 09:12:36;;;;;;;2.50;2.40;;;23.50;99.90;;;23.76;64.89;101316.03;5064589;28;20059;-63
2023/08/14 09:15:09;;;;;;;2.42;2.33;;;23.50;99.90;;;23.82;66.90;101316.63;5066697;28;20126;-66
2023/08/14 09:17:38;;;;;;;3.42;3.13;;;23.60;99.90;;;23.80;65.63;101323.03;5055448;28;20042;-65
2023/08/14 09:20:14;;;;;;;5.55;3.33;;;23.60;99.90;;;23.86;65.94;101311.91;5055234;28;20140;-63
2023/08/14 09:23:00;;;;;;;2.65;2.45;;;23.70;99.90;;;24.01;67.57;101313.81;5063050;28;20102;-66
2023/08/14 09:25:29;;;;;;;2.28;2.17;;;23.70;99.90;;;23.94;67.11;101315.94;5065914;28;20051;-64
2023/08/14 09:27:59;;;;;;;2.42;2.33;;;23.70;99.90;;;23.97;67.59;101307.69;5064137;28;20041;-64
2023/08/14 09:30:29;;;;;;;2.78;2.65;;;23.70;99.90;;;24.10;67.15;101307.94;5064862;28;20045;-64
2023/08/14 09:32:57;;;;;;;2.20;2.10;;;23.80;99.90;;;24.27;68.58;101298.94;5060767;28;20094;-67
2023/08/14 09:35:26;;;;;;;2.53;2.42;;;23.90;99.90;;;24.37;68.73;101313.72;5065771;28;20053;-66
2023/08/14 09:37:54;;;;;;;2.35;2.25;;;24.20;99.90;;;24.45;66.67;101308.78;5063374;28;20057;-65
2023/08/14 09:40:23;;;;;;;3.03;2.83;;;24.10;99.90;;;24.32;65.85;101299.56;5066490;28;20079;-65
2023/08/14 09:42:51;;;;;;;2.35;2.25;;;24.20;99.90;;;24.43;67.75;101305.28;5055055;28;20055;-65
2023/08/14 09:45:23;;;;;;;2.35;2.25;;;24.20;99.90;;;24.43;67.97;101297.16;5054428;28;20053;-64
2023/08/14 09:48:00;;;;;;;2.08;1.98;;;24.20;99.90;;;24.46;64.46;101296.97;5054278;28;20398;-66
2023/08/14 09:50:29;;;;;;;2.60;2.50;;;24.30;99.90;;;24.63;65.05;101294.22;5057239;28;20048;-66
2023/08/14 09:52:59;;;;;;;2.05;1.95;;;24.40;99.90;;;24.71;63.26;101287.44;5062964;28;20080;-66
2023/08/14 09:55:28;;;;;;;2.30;2.20;;;24.50;99.90;;;24.15;63.66;101179.69;5066226;28;20335;-67
2023/08/14 09:57:57;;;;;;;2.75;2.55;;;24.60;99.90;;;24.77;61.26;101287.13;5062463;28;20414;-66
2023/08/14 10:00:30;;;;;;;2.30;2.20;;;24.60;99.90;;;24.81;62.04;101283.28;5065468;28;20466;-66
2023/08/14 10:03:01;;;;;;;2.10;2.00;;;24.70;99.90;;;24.79;61.50;101290.59;5063620;28;20053;-68
2023/08/14 10:05:33;;;;;;;2.20;2.10;;;24.60;99.90;;;24.93;61.63;101287.13;5063328;28;20139;-67
2023/08/14 10:08:03;;;;;;;2.53;2.42;;;24.70;99.90;;;25.06;61.90;101290.88;5065346;28;20418;-67
2023/08/14 10:10:33;;;;;;;2.72;2.53;;;24.80;99.90;;;24.90;60.25;101269.22;5053852;28;20134;-67
2023/08/14 10:13:06;;;;;;;2.30;2.20;;;24.90;99.90;;;25.17;61.12;101273.97;5062519;28;20418;-67
2023/08/14 10:15:42;;;;;;;2.53;2.40;;;25.00;99.90;;;25.32;61.40;101273.97;5079747;28;20466;-67
2023/08/14 10:18:17;;;;;;;4.72;2.97;;;25.10;99.90;;;25.40;60.65;101277.13;5064695;28;20036;-67
2023/08/14 10:20:48;;;;;;;2.45;2.35;;;25.20;99.90;;;25.22;58.47;101251.13;5061983;28;20405;-66
2023/08/14 10:23:19;;;;;;;2.10;2.00;;;25.20;99.90;;;25.39;58.03;101275.41;5064261;28;20044;-66